createdAt,value
2019-04-16T00:01:59.994Z,10.53
2019-04-16T00:04:53.658Z,10.40
2019-04-16T00:07:32.301Z,11.43
2019-04-16T00:10:43.989Z,11.20
2019-04-16T00:13:41.546Z,11.20
2019-04-16T00:16:13.038Z,11.17
2019-04-16T00:18:56.354Z,10.10
2019-04-16T00:21:38.467Z,11.33
2019-04-16T00:24:22.187Z,10.73
2019-04-16T00:26:57.826Z,10.13
2019-04-16T00:29:26.328Z,11.03
2019-04-16T00:32:30.233Z,11.17
2019-04-16T00:34:59.680Z,10.70
2019-04-16T00:37:30.463Z,10.47
2019-04-16T00:40:00.892Z,11.20
2019-04-16T00:42:30.540Z,11.37
2019-04-16T00:45:00.062Z,11.23
2019-04-16T00:47:29.568Z,11.90
2019-04-16T00:49:59.606Z,11.13
2019-04-16T00:52:29.379Z,11.63
2019-04-16T00:54:58.925Z,11.50
2019-04-16T00:57:28.381Z,10.67
2019-04-16T00:59:57.990Z,11.07
2019-04-16T01:02:27.565Z,12.00
2019-04-16T01:04:57.023Z,11.70
2019-04-16T01:07:26.449Z,11.80
2019-04-16T01:09:55.965Z,12.03
2019-04-16T01:12:25.406Z,12.07
2019-04-16T01:14:58.867Z,12.23
2019-04-16T01:17:26.191Z,11.73
2019-04-16T01:19:55.965Z,11.43
2019-04-16T01:22:25.467Z,11.83
2019-04-16T01:24:55.227Z,11.93
2019-04-16T01:27:32.215Z,10.87
2019-04-16T01:30:05.095Z,13.20
2019-04-16T01:32:52.067Z,12.33
2019-04-16T01:35:43.678Z,14.30
2019-04-16T01:38:27.660Z,12.17
2019-04-16T01:40:59.981Z,12.20
2019-04-16T01:43:29.535Z,12.23
2019-04-16T01:46:01.444Z,12.00
2019-04-16T01:48:30.227Z,12.10
2019-04-16T01:50:59.952Z,12.03
2019-04-16T01:53:29.419Z,12.30
2019-04-16T01:55:58.929Z,12.27
2019-04-16T01:58:28.410Z,13.07
2019-04-16T02:00:57.877Z,12.40
2019-04-16T02:03:27.386Z,12.10
2019-04-16T02:05:56.977Z,12.23
2019-04-16T02:08:28.271Z,12.90
2019-04-16T02:10:57.565Z,12.70
2019-04-16T02:13:26.999Z,12.57
2019-04-16T02:15:56.449Z,13.00
2019-04-16T02:18:29.488Z,12.73
2019-04-16T02:20:57.627Z,12.17
2019-04-16T02:23:27.134Z,11.73
2019-04-16T02:25:56.668Z,12.23
2019-04-16T02:28:28.434Z,18.50
2019-04-16T02:30:57.479Z,13.20
2019-04-16T02:33:26.934Z,13.87
2019-04-16T02:35:56.775Z,13.30
2019-04-16T02:38:27.243Z,14.47
2019-04-16T02:40:56.704Z,13.80
2019-04-16T02:43:27.200Z,15.03
2019-04-16T02:45:58.015Z,14.20
2019-04-16T02:48:27.938Z,14.77
2019-04-16T02:51:05.845Z,16.47
2019-04-16T02:53:46.664Z,14.47
2019-04-16T02:56:51.641Z,15.03
2019-04-16T02:59:31.351Z,14.07
2019-04-16T03:02:26.466Z,14.00
2019-04-16T03:05:02.999Z,14.83
2019-04-16T03:07:33.437Z,15.00
2019-04-16T03:10:03.193Z,15.13
2019-04-16T03:12:33.037Z,15.23
2019-04-16T03:15:02.830Z,16.10
2019-04-16T03:17:42.949Z,15.40
2019-04-16T03:20:14.166Z,15.87
2019-04-16T03:22:43.807Z,16.40
2019-04-16T03:25:14.568Z,15.77
2019-04-16T03:27:44.254Z,16.30
2019-04-16T03:30:14.149Z,16.60
2019-04-16T03:32:52.445Z,15.50
2019-04-16T03:35:25.339Z,15.67
2019-04-16T03:37:53.038Z,16.43
2019-04-16T03:40:25.529Z,16.60
2019-04-16T03:42:58.814Z,16.10
2019-04-16T03:45:24.761Z,16.70
2019-04-16T03:47:54.199Z,16.93
2019-04-16T03:50:23.719Z,16.83
2019-04-16T03:52:53.451Z,17.00
2019-04-16T03:55:26.304Z,17.80
2019-04-16T03:57:54.043Z,17.07
2019-04-16T04:00:23.716Z,17.30
2019-04-16T04:02:55.140Z,18.37
2019-04-16T04:05:24.385Z,17.80
2019-04-16T04:07:55.498Z,17.47
2019-04-16T04:10:30.908Z,17.87
2019-04-16T04:12:56.590Z,17.17
2019-04-16T04:15:27.104Z,19.73
2019-04-16T04:17:56.795Z,18.27
2019-04-16T04:20:26.296Z,17.93
2019-04-16T04:22:57.021Z,18.10
2019-04-16T04:25:26.939Z,16.73
2019-04-16T04:27:56.487Z,17.27
2019-04-16T04:30:28.825Z,18.00
2019-04-16T04:32:57.446Z,18.10
2019-04-16T04:35:27.020Z,17.97
2019-04-16T04:37:56.548Z,17.60
2019-04-16T04:40:25.973Z,19.83
2019-04-16T04:42:57.635Z,18.30
2019-04-16T04:45:27.877Z,18.47
2019-04-16T04:47:57.347Z,18.20
2019-04-16T04:50:26.945Z,18.37
2019-04-16T04:52:56.390Z,19.83
2019-04-16T04:55:26.828Z,17.70
2019-04-16T04:57:56.587Z,19.27
2019-04-16T05:00:26.272Z,19.00
2019-04-16T05:02:55.884Z,19.23
2019-04-16T05:05:38.919Z,18.93
2019-04-16T05:08:08.446Z,19.83
2019-04-16T05:10:42.865Z,20.73
2019-04-16T05:13:09.155Z,19.90
2019-04-16T05:15:38.569Z,19.60
2019-04-16T05:18:09.767Z,20.07
2019-04-16T05:20:39.370Z,20.27
2019-04-16T05:23:08.811Z,19.07
2019-04-16T05:25:38.246Z,18.20
2019-04-16T05:28:11.686Z,18.87
2019-04-16T05:30:39.021Z,18.67
2019-04-16T05:33:08.590Z,19.13
2019-04-16T05:35:38.562Z,19.27
2019-04-16T05:38:09.236Z,19.07
2019-04-16T05:40:38.941Z,19.27
2019-04-16T05:43:08.389Z,20.37
2019-04-16T05:45:37.968Z,18.10
2019-04-16T05:48:07.579Z,22.20
2019-04-16T05:50:37.054Z,17.40
2019-04-16T05:53:08.468Z,18.07
2019-04-16T05:55:51.446Z,17.33
2019-04-16T05:58:20.868Z,19.77
2019-04-16T06:01:01.306Z,19.10
2019-04-16T06:03:30.730Z,18.70
2019-04-16T06:06:00.161Z,20.23
2019-04-16T06:08:29.625Z,19.47
2019-04-16T06:10:59.112Z,17.57
2019-04-16T06:13:47.718Z,23.17
2019-04-16T06:16:39.095Z,21.73
2019-04-16T06:19:31.860Z,21.87
2019-04-16T06:22:10.345Z,23.07
2019-04-16T06:25:17.155Z,20.33
2019-04-16T06:28:05.087Z,17.23
2019-04-16T06:30:47.425Z,19.03
2019-04-16T06:33:27.687Z,17.43
2019-04-16T06:36:20.554Z,16.20
2019-04-16T06:38:57.765Z,14.47
2019-04-16T06:41:48.421Z,16.93
2019-04-16T06:44:21.188Z,15.73
2019-04-16T06:47:03.571Z,17.10
2019-04-16T06:49:52.034Z,15.97
2019-04-16T06:52:53.201Z,15.00
2019-04-16T06:55:36.110Z,22.30
2019-04-16T06:58:19.669Z,14.73
2019-04-16T07:01:12.950Z,16.57
2019-04-16T07:04:01.561Z,15.30
2019-04-16T07:06:49.910Z,15.30
2019-04-16T07:09:41.311Z,15.37
2019-04-16T07:12:21.926Z,15.10
2019-04-16T07:14:51.429Z,20.83
2019-04-16T07:17:20.994Z,16.23
2019-04-16T07:19:50.536Z,14.67
2019-04-16T07:22:21.319Z,15.97
2019-04-16T07:25:03.370Z,19.13
2019-04-16T07:27:38.704Z,15.40
2019-04-16T07:30:19.460Z,23.62
2019-04-16T07:33:11.546Z,15.93
2019-04-16T07:36:09.031Z,13.20
2019-04-16T07:38:57.217Z,21.23
2019-04-16T07:41:32.112Z,15.65
2019-04-16T07:44:10.217Z,14.70
2019-04-16T07:47:10.075Z,14.45
2019-04-16T07:50:07.915Z,15.20
2019-04-16T07:52:54.722Z,16.17
2019-04-16T07:55:43.349Z,15.05
2019-04-16T07:58:12.789Z,12.85
2019-04-16T08:00:42.300Z,15.83
2019-04-16T08:03:11.750Z,13.62
2019-04-16T08:05:41.951Z,14.28
2019-04-16T08:08:11.465Z,19.17
2019-04-16T08:10:41.338Z,18.42
2019-04-16T08:13:16.687Z,16.07
2019-04-16T08:15:46.302Z,14.70
2019-04-16T08:18:15.794Z,17.57
2019-04-16T08:20:45.448Z,15.90
2019-04-16T08:23:43.401Z,19.12
2019-04-16T08:26:13.832Z,18.77
2019-04-16T08:28:43.497Z,13.45
2019-04-16T08:31:19.539Z,16.67
2019-04-16T08:33:48.983Z,17.37
2019-04-16T08:36:18.429Z,17.35
2019-04-16T08:38:47.869Z,16.05
2019-04-16T08:41:21.362Z,15.88
2019-04-16T08:43:48.447Z,16.37
2019-04-16T08:46:17.990Z,15.00
2019-04-16T08:48:49.341Z,15.72
2019-04-16T08:51:30.390Z,18.60
2019-04-16T08:53:52.294Z,15.10
2019-04-16T08:56:22.064Z,17.85
2019-04-16T08:58:51.816Z,14.20
2019-04-16T09:01:26.806Z,14.33
2019-04-16T09:04:01.515Z,15.48
2019-04-16T09:06:27.959Z,13.50
2019-04-16T09:09:18.366Z,15.28
2019-04-16T09:11:51.129Z,13.38
2019-04-16T09:14:25.378Z,14.53
2019-04-16T09:17:17.494Z,14.60
2019-04-16T09:19:52.741Z,13.90
2019-04-16T09:22:22.419Z,17.00
2019-04-16T09:25:03.128Z,15.53
2019-04-16T09:27:36.710Z,18.23
2019-04-16T09:30:24.661Z,19.65
2019-04-16T09:33:07.708Z,17.98
2019-04-16T09:35:59.116Z,14.25
2019-04-16T09:38:37.297Z,14.13
2019-04-16T09:41:14.152Z,14.70
2019-04-16T09:43:47.344Z,13.75
2019-04-16T09:46:22.392Z,15.60
2019-04-16T09:48:50.161Z,14.60
2019-04-16T09:51:21.194Z,13.80
2019-04-16T09:53:51.194Z,15.85
2019-04-16T09:56:29.113Z,15.43
2019-04-16T09:59:01.922Z,12.98
2019-04-16T10:01:50.852Z,15.85
2019-04-16T10:04:21.304Z,13.32
2019-04-16T10:06:51.098Z,14.35
2019-04-16T10:09:22.422Z,15.13
2019-04-16T10:11:52.442Z,13.93
2019-04-16T10:14:22.589Z,13.28
2019-04-16T10:16:52.464Z,12.88
2019-04-16T10:19:22.280Z,12.93
2019-04-16T10:21:54.223Z,14.60
2019-04-16T10:24:48.654Z,13.40
2019-04-16T10:27:32.623Z,13.78
2019-04-16T10:30:02.907Z,13.72
2019-04-16T10:32:32.947Z,15.78
2019-04-16T10:35:02.683Z,14.33
2019-04-16T10:37:33.915Z,14.20
2019-04-16T10:40:11.835Z,15.88
2019-04-16T10:42:59.578Z,13.80
2019-04-16T10:45:47.500Z,13.32
2019-04-16T10:48:43.817Z,13.78
2019-04-16T10:51:21.745Z,13.15
2019-04-16T10:54:06.317Z,13.70
2019-04-16T10:56:57.947Z,12.68
2019-04-16T10:59:51.214Z,14.05
2019-04-16T11:02:46.271Z,12.23
2019-04-16T11:05:20.899Z,13.22
2019-04-16T11:07:50.893Z,13.60
2019-04-16T11:10:20.643Z,11.12
2019-04-16T11:12:50.834Z,11.65
2019-04-16T11:15:22.505Z,15.10
2019-04-16T11:17:52.727Z,15.10
2019-04-16T11:20:24.229Z,17.20
2019-04-16T11:22:54.073Z,11.73
2019-04-16T11:25:23.837Z,10.90
2019-04-16T11:27:53.649Z,13.93
2019-04-16T11:30:32.725Z,11.80
2019-04-16T11:33:03.110Z,14.63
2019-04-16T11:35:32.912Z,13.72
2019-04-16T11:38:02.763Z,11.95
2019-04-16T11:40:32.747Z,12.63
2019-04-16T11:43:03.159Z,11.73
2019-04-16T11:45:33.593Z,11.60
2019-04-16T11:48:04.350Z,11.95
2019-04-16T11:50:36.162Z,9.83
2019-04-16T11:53:06.184Z,10.38
2019-04-16T11:55:36.401Z,13.83
2019-04-16T11:58:10.760Z,9.40
2019-04-16T12:00:48.756Z,10.05
2019-04-16T12:03:46.104Z,9.75
2019-04-16T12:06:44.443Z,11.78
2019-04-16T12:09:33.364Z,12.20
2019-04-16T12:12:24.999Z,8.10
2019-04-16T12:15:14.009Z,9.63
2019-04-16T12:17:58.203Z,9.40
2019-04-16T12:20:46.483Z,9.08
2019-04-16T12:23:35.708Z,8.90
2019-04-16T12:26:28.496Z,11.10
2019-04-16T12:29:17.434Z,13.32
2019-04-16T12:32:04.314Z,13.58
2019-04-16T12:34:51.180Z,12.00
2019-04-16T12:37:38.927Z,14.80
2019-04-16T12:40:36.853Z,17.50
2019-04-16T12:43:21.472Z,16.30
2019-04-16T12:45:56.641Z,15.05
2019-04-16T12:48:45.240Z,15.70
2019-04-16T12:51:31.022Z,15.23
2019-04-16T12:54:19.938Z,16.57
2019-04-16T12:57:10.646Z,15.08
2019-04-16T13:00:00.394Z,18.57
2019-04-16T13:02:38.453Z,16.12
2019-04-16T13:05:21.240Z,16.57
2019-04-16T13:08:15.682Z,15.58
2019-04-16T13:11:19.888Z,16.70
2019-04-16T13:14:21.202Z,17.45
2019-04-16T13:17:28.641Z,18.23
2019-04-16T13:20:32.614Z,18.55
2019-04-16T13:23:07.450Z,17.35
2019-04-16T13:25:54.231Z,23.32
2019-04-16T13:28:24.083Z,21.97
2019-04-16T13:30:53.950Z,21.57
2019-04-16T13:33:23.719Z,17.40
2019-04-16T13:35:53.480Z,16.45
2019-04-16T13:38:24.525Z,17.52
2019-04-16T13:40:54.247Z,18.05
2019-04-16T13:43:28.795Z,18.10
2019-04-16T13:45:59.049Z,17.85
2019-04-16T13:48:43.807Z,16.73
2019-04-16T13:51:18.777Z,15.53
2019-04-16T13:54:04.387Z,21.23
2019-04-16T13:56:42.779Z,15.55
2019-04-16T13:59:17.404Z,15.53
2019-04-16T14:01:51.924Z,14.40
2019-04-16T14:04:22.141Z,15.60
2019-04-16T14:06:52.225Z,13.68
2019-04-16T14:09:22.011Z,17.85
2019-04-16T14:11:52.084Z,15.50
2019-04-16T14:14:24.255Z,15.30
2019-04-16T14:17:08.377Z,14.90
2019-04-16T14:19:30.289Z,13.43
2019-04-16T14:22:00.045Z,12.95
2019-04-16T14:24:29.828Z,10.95
2019-04-16T14:27:00.059Z,12.80
2019-04-16T14:29:30.186Z,12.37
2019-04-16T14:32:00.057Z,10.60
2019-04-16T14:34:48.945Z,11.95
2019-04-16T14:37:19.311Z,11.38
2019-04-16T14:40:01.603Z,12.35
2019-04-16T14:42:31.359Z,11.08
2019-04-16T14:45:09.652Z,12.53
2019-04-16T14:47:40.455Z,11.22
2019-04-16T14:50:13.344Z,12.75
2019-04-16T14:52:41.954Z,9.83
2019-04-16T14:55:20.880Z,14.35
2019-04-16T14:58:04.854Z,12.60
2019-04-16T15:01:03.031Z,9.95
2019-04-16T15:03:50.734Z,11.43
2019-04-16T15:06:42.869Z,13.10
2019-04-16T15:09:34.769Z,9.93
2019-04-16T15:12:27.836Z,10.40
2019-04-16T15:15:01.342Z,9.48
2019-04-16T15:17:53.540Z,10.43
2019-04-16T15:20:51.531Z,10.43
2019-04-16T15:23:43.508Z,11.57
2019-04-16T15:26:53.329Z,8.98
2019-04-16T15:29:43.819Z,9.28
2019-04-16T15:32:34.062Z,10.35
2019-04-16T15:35:03.378Z,10.03
2019-04-16T15:37:49.321Z,10.25
2019-04-16T15:40:30.192Z,11.85
2019-04-16T15:43:34.177Z,10.58
2019-04-16T15:46:26.892Z,9.03
2019-04-16T15:49:07.467Z,10.10
2019-04-16T15:51:50.842Z,9.33
2019-04-16T15:54:41.014Z,9.03
2019-04-16T15:57:33.987Z,8.18
2019-04-16T16:00:21.952Z,8.15
2019-04-16T16:03:16.799Z,10.32
2019-04-16T16:05:52.701Z,10.25
2019-04-16T16:08:35.378Z,9.60
2019-04-16T16:11:04.244Z,9.63
2019-04-16T16:13:33.960Z,11.00
2019-04-16T16:16:03.924Z,10.55
2019-04-16T16:18:35.767Z,8.93
2019-04-16T16:21:05.145Z,9.00
2019-04-16T16:23:34.837Z,9.68
2019-04-16T16:26:06.489Z,7.00
2019-04-16T16:28:36.226Z,7.25
2019-04-16T16:31:05.921Z,8.15
2019-04-16T16:33:35.939Z,10.18
2019-04-16T16:36:05.660Z,7.10
2019-04-16T16:38:35.882Z,6.37
2019-04-16T16:41:05.683Z,9.10
2019-04-16T16:43:37.142Z,7.40
2019-04-16T16:46:20.343Z,6.30
2019-04-16T16:48:50.114Z,6.40
2019-04-16T16:51:22.904Z,5.53
2019-04-16T16:54:02.225Z,6.20
2019-04-16T16:56:41.167Z,8.88
2019-04-16T16:59:38.871Z,5.62
2019-04-16T17:02:22.775Z,8.15
2019-04-16T17:04:53.610Z,6.00
2019-04-16T17:07:23.286Z,7.10
2019-04-16T17:09:53.049Z,5.22
2019-04-16T17:12:23.121Z,6.35
2019-04-16T17:14:52.855Z,4.85
2019-04-16T17:17:22.586Z,5.45
2019-04-16T17:19:52.341Z,5.65
2019-04-16T17:22:22.113Z,5.83
2019-04-16T17:24:51.859Z,3.80
2019-04-16T17:27:21.652Z,3.05
2019-04-16T17:29:51.401Z,3.17
2019-04-16T17:32:21.241Z,5.33
2019-04-16T17:34:50.921Z,2.60
2019-04-16T17:37:25.900Z,3.08
2019-04-16T17:39:54.522Z,2.90
2019-04-16T17:42:36.986Z,2.27
2019-04-16T17:45:37.423Z,3.98
2019-04-16T17:48:29.386Z,3.17
2019-04-16T17:51:07.766Z,2.55
2019-04-16T17:53:59.704Z,2.70
2019-04-16T17:56:58.745Z,3.98
2019-04-16T17:59:33.796Z,5.15
2019-04-16T18:02:28.910Z,2.72
2019-04-16T18:05:14.677Z,4.17
2019-04-16T18:08:12.944Z,3.30
2019-04-16T18:11:02.653Z,2.80
2019-04-16T18:13:52.133Z,3.55
2019-04-16T18:16:41.320Z,2.80
2019-04-16T18:19:28.374Z,2.72
2019-04-16T18:22:15.855Z,3.02
2019-04-16T18:25:01.670Z,4.15
2019-04-16T18:27:36.668Z,4.72
2019-04-16T18:30:37.939Z,4.72
2019-04-16T18:33:29.882Z,4.70
2019-04-16T18:36:27.693Z,4.80
2019-04-16T18:39:37.423Z,4.78
2019-04-16T18:42:14.257Z,2.70
2019-04-16T18:44:54.326Z,2.33
2019-04-16T18:48:03.076Z,3.25
2019-04-16T18:50:28.067Z,2.17
2019-04-16T18:52:56.619Z,1.67
2019-04-16T18:55:26.385Z,2.27
2019-04-16T18:57:56.226Z,2.27
2019-04-16T19:00:37.500Z,3.60
2019-04-16T19:03:07.352Z,2.45
2019-04-16T19:05:37.014Z,3.55
2019-04-16T19:08:07.955Z,5.70
2019-04-16T19:10:37.823Z,3.47
2019-04-16T19:13:11.099Z,4.00
2019-04-16T19:15:39.431Z,5.33
2019-04-16T19:18:19.236Z,3.30
2019-04-16T19:20:40.762Z,2.90
2019-04-16T19:23:10.846Z,5.28
2019-04-16T19:25:40.664Z,6.62
2019-04-16T19:28:10.496Z,9.38
2019-04-16T19:30:40.390Z,4.80
2019-04-16T19:33:10.135Z,2.60
2019-04-16T19:35:40.000Z,5.15
2019-04-16T19:38:09.644Z,3.92
2019-04-16T19:40:39.658Z,3.40
2019-04-16T19:43:09.441Z,2.27
2019-04-16T19:45:40.731Z,2.15
2019-04-16T19:48:10.635Z,1.85
2019-04-16T19:50:40.891Z,2.25
2019-04-16T19:53:13.758Z,3.20
2019-04-16T19:55:45.619Z,3.10
2019-04-16T19:58:13.626Z,4.25
2019-04-16T20:00:43.357Z,1.87
2019-04-16T20:03:13.109Z,1.80
2019-04-16T20:05:42.996Z,2.20
2019-04-16T20:08:12.751Z,1.90
2019-04-16T20:10:42.602Z,4.12
2019-04-16T20:13:12.338Z,2.15
2019-04-16T20:15:43.513Z,1.72
2019-04-16T20:18:13.441Z,1.82
2019-04-16T20:20:43.193Z,2.07
2019-04-16T20:23:13.172Z,1.93
2019-04-16T20:25:43.281Z,3.90
2019-04-16T20:28:15.631Z,2.00
2019-04-16T20:30:44.836Z,3.75
2019-04-16T20:33:14.588Z,2.10
2019-04-16T20:35:44.311Z,2.37
2019-04-16T20:38:16.944Z,2.33
2019-04-16T20:40:45.430Z,2.27
2019-04-16T20:43:15.198Z,2.40
2019-04-16T20:45:44.946Z,3.25
2019-04-16T20:48:14.742Z,2.30
2019-04-16T20:50:44.848Z,2.20
2019-04-16T20:53:16.329Z,2.33
2019-04-16T20:55:47.422Z,3.50
2019-04-16T20:58:17.928Z,2.53
2019-04-16T21:00:49.406Z,3.23
2019-04-16T21:03:22.319Z,2.40
2019-04-16T21:05:58.084Z,3.23
2019-04-16T21:08:24.181Z,3.70
2019-04-16T21:10:53.490Z,3.13
2019-04-16T21:13:23.256Z,3.40
2019-04-16T21:15:53.011Z,3.77
2019-04-16T21:18:22.871Z,3.30
2019-04-16T21:20:52.599Z,3.33
2019-04-16T21:23:22.380Z,2.77
2019-04-16T21:25:52.133Z,3.03
2019-04-16T21:28:32.483Z,3.23
2019-04-16T21:31:06.701Z,5.77
2019-04-16T21:33:58.690Z,4.50
2019-04-16T21:36:48.719Z,4.37
2019-04-16T21:39:25.106Z,4.80
2019-04-16T21:41:57.934Z,4.33
2019-04-16T21:44:26.274Z,4.33
2019-04-16T21:46:58.192Z,4.47
2019-04-16T21:49:38.202Z,6.50
2019-04-16T21:52:09.157Z,4.40
2019-04-16T21:54:39.434Z,3.93
2019-04-16T21:57:13.151Z,5.03
2019-04-16T21:59:40.560Z,4.27
2019-04-16T22:02:20.237Z,7.73
2019-04-16T22:04:50.171Z,5.00
2019-04-16T22:07:24.246Z,4.33
2019-04-16T22:09:53.355Z,5.13
2019-04-16T22:12:23.446Z,5.27
2019-04-16T22:14:54.484Z,4.67
2019-04-16T22:17:24.746Z,4.93
2019-04-16T22:20:00.837Z,6.30
2019-04-16T22:22:27.753Z,7.33
2019-04-16T22:24:57.256Z,10.50
2019-04-16T22:27:27.006Z,5.87
2019-04-16T22:29:56.972Z,5.30
2019-04-16T22:32:27.075Z,4.00
2019-04-16T22:34:58.708Z,4.70
2019-04-16T22:37:28.465Z,5.70
2019-04-16T22:40:16.141Z,5.13
2019-04-16T22:42:56.869Z,4.30
2019-04-16T22:45:52.325Z,5.27
2019-04-16T22:48:22.302Z,4.60
2019-04-16T22:50:52.306Z,5.40
2019-04-16T22:53:21.961Z,6.30
2019-04-16T22:55:56.419Z,7.07
2019-04-16T22:58:24.247Z,4.47
2019-04-16T23:00:57.644Z,4.47
2019-04-16T23:03:27.502Z,5.13
2019-04-16T23:05:57.351Z,4.37
2019-04-16T23:08:27.076Z,5.10
2019-04-16T23:10:56.744Z,4.60
2019-04-16T23:13:26.461Z,5.10
2019-04-16T23:15:56.247Z,5.60
2019-04-16T23:18:25.989Z,4.87
2019-04-16T23:20:55.796Z,4.67
2019-04-16T23:23:25.767Z,5.53
2019-04-16T23:25:59.008Z,4.20
2019-04-16T23:28:27.138Z,4.17
2019-04-16T23:30:57.583Z,3.97
2019-04-16T23:33:32.586Z,4.40
2019-04-16T23:35:59.261Z,8.03
2019-04-16T23:38:31.618Z,5.83
2019-04-16T23:41:00.801Z,4.87
2019-04-16T23:44:05.045Z,12.13
2019-04-16T23:46:55.083Z,5.03
2019-04-16T23:49:38.691Z,6.50
2019-04-16T23:52:14.447Z,4.10
2019-04-16T23:54:59.687Z,3.90
2019-04-16T23:57:56.777Z,4.30
